Time;durP1;ratioP1;P1;durP2;ratioP2;P2;SDS_P1;SDS_P2;PMS_P1;PMS_P2;Temp;Humidity;BMP_temperature;BMP_pressure;BME280_temperature;BME280_humidity;BME280_pressure;Samples;Min_cycle;Max_cycle;Signal;HPM_P1;HPM_P2
2022/08/29 00:02:24;;;;;;;12.00;3.10;;;;;;;16.54;97.24;100407.23;105538;1276;24709;-65
2022/08/29 00:04:56;;;;;;;12.30;3.40;;;;;;;16.51;97.15;100409.14;105666;1276;24337;-66
2022/08/29 00:07:28;;;;;;;13.20;2.90;;;;;;;16.47;97.05;100411.78;105872;1276;22648;-63
2022/08/29 00:09:59;;;;;;;11.30;3.40;;;;;;;16.43;97.13;100409.06;105476;1275;22522;-64
2022/08/29 00:12:32;;;;;;;14.80;3.70;;;;;;;16.41;97.17;100411.79;105741;1273;22671;-65
2022/08/29 00:15:04;;;;;;;15.20;3.60;;;;;;;16.38;96.94;100414.56;105664;1275;24392;-64
2022/08/29 00:17:36;;;;;;;13.90;3.30;;;;;;;16.35;96.96;100411.95;105653;1275;22691;-67
2022/08/29 00:20:11;;;;;;;17.70;3.20;;;;;;;16.30;96.96;100411.66;105514;1274;24369;-64
2022/08/29 00:22:43;;;;;;;10.30;2.50;;;;;;;16.27;96.91;100410.79;105677;1274;25387;-65
2022/08/29 00:25:17;;;;;;;11.90;3.10;;;;;;;16.23;96.99;100415.70;105525;1274;24455;-64
2022/08/29 00:27:49;;;;;;;14.60;2.70;;;;;;;16.21;97.01;100415.30;105674;1274;25341;-64
2022/08/29 00:30:22;;;;;;;12.90;3.00;;;;;;;16.19;96.98;100415.45;105643;1274;25434;-65
2022/08/29 00:32:54;;;;;;;14.00;3.00;;;;;;;16.15;96.97;100419.19;105653;1273;25536;-65
2022/08/29 00:35:27;;;;;;;17.90;4.00;;;;;;;16.13;97.13;100420.38;105678;1276;22624;-65
2022/08/29 00:37:59;;;;;;;15.80;3.40;;;;;;;16.11;97.02;100419.77;105573;1274;22562;-64
2022/08/29 00:40:33;;;;;;;13.90;3.20;;;;;;;16.09;97.03;100422.06;105816;1274;22625;-64
2022/08/29 00:43:05;;;;;;;15.50;3.00;;;;;;;16.07;97.14;100421.20;105693;1274;25352;-65
2022/08/29 00:45:39;;;;;;;12.60;2.80;;;;;;;16.07;97.05;100424.28;105668;1274;24252;-65
2022/08/29 00:48:15;;;;;;;19.00;3.90;;;;;;;16.06;96.98;100426.94;105648;1274;24032;-64
2022/08/29 00:50:51;;;;;;;16.20;3.50;;;;;;;16.02;97.07;100427.30;105623;1275;22579;-65
2022/08/29 00:53:29;;;;;;;16.00;3.90;;;;;;;15.97;96.93;100426.98;105541;1275;22598;-64
2022/08/29 00:56:01;;;;;;;12.80;3.50;;;;;;;15.96;96.99;100427.19;105715;1273;25289;-64
2022/08/29 00:58:35;;;;;;;12.70;3.00;;;;;;;15.94;96.97;100430.20;105779;1274;22627;-65
2022/08/29 01:01:07;;;;;;;13.80;3.40;;;;;;;15.92;96.93;100430.52;105704;1273;23020;-64
2022/08/29 01:03:40;;;;;;;15.70;2.90;;;;;;;15.89;96.92;100429.29;105633;1274;22632;-65
2022/08/29 01:06:13;;;;;;;17.60;4.50;;;;;;;15.85;96.96;100432.36;105515;1274;26237;-65
2022/08/29 01:08:45;;;;;;;14.10;3.20;;;;;;;15.85;96.94;100436.05;105781;1274;22554;-65
2022/08/29 01:14:09;;;;;;;17.00;4.30;;;;;;;15.79;96.80;100430.77;105537;1274;24259;-64
2022/08/29 01:16:42;;;;;;;17.40;3.00;;;;;;;15.77;96.88;100432.46;105957;1275;24315;-65
2022/08/29 01:19:20;;;;;;;12.30;3.20;;;;;;;15.75;96.87;100432.34;105657;1274;24276;-64
2022/08/29 01:21:59;;;;;;;19.70;3.60;;;;;;;15.71;96.75;100428.66;105570;1275;22540;-65
2022/08/29 01:24:40;;;;;;;14.30;3.30;;;;;;;15.67;96.76;100429.88;105583;1274;24325;-65
2022/08/29 01:27:11;;;;;;;;;;;;;;;15.63;96.79;100426.81;105566;1275;24333;-64
2022/08/29 01:29:42;;;;;;;16.60;3.00;;;;;;;15.58;96.80;100431.52;105587;1274;22747;-64
2022/08/29 01:32:15;;;;;;;11.70;3.30;;;;;;;15.57;97.01;100428.69;105614;1274;22545;-65
2022/08/29 01:34:47;;;;;;;13.60;3.80;;;;;;;15.56;96.92;100431.65;105800;1274;25544;-66
2022/08/29 01:37:19;;;;;;;17.70;3.30;;;;;;;15.54;96.94;100433.85;105689;1274;22594;-65
2022/08/29 01:39:51;;;;;;;18.40;3.30;;;;;;;15.50;96.83;100431.25;105748;1274;24263;-64
2022/08/29 01:42:23;;;;;;;15.90;3.50;;;;;;;15.47;96.97;100433.65;105756;1274;24452;-64
2022/08/29 01:44:58;;;;;;;13.20;3.90;;;;;;;15.45;96.90;100435.67;105570;1274;22869;-64
2022/08/29 01:47:35;;;;;;;18.50;3.40;;;;;;;15.41;97.05;100435.55;105705;1274;24249;-65
2022/08/29 01:50:09;;;;;;;13.10;2.90;;;;;;;15.37;97.00;100429.95;105843;1274;25491;-65
2022/08/29 01:52:41;;;;;;;14.80;3.50;;;;;;;15.35;97.21;100431.06;105696;1274;22617;-65
2022/08/29 01:55:14;;;;;;;13.70;2.90;;;;;;;15.34;97.19;100433.42;105621;1274;23095;-65
2022/08/29 01:57:47;;;;;;;15.10;3.60;;;;;;;15.33;97.26;100433.63;105672;1274;23436;-65
2022/08/29 02:00:19;;;;;;;14.50;3.90;;;;;;;15.31;97.36;100432.90;105879;1274;22907;-65
2022/08/29 02:02:51;;;;;;;11.50;3.40;;;;;;;15.29;97.52;100434.34;105585;1275;25248;-64
2022/08/29 02:05:23;;;;;;;12.80;3.30;;;;;;;15.28;97.59;100434.53;105713;1274;22714;-64
2022/08/29 02:07:55;;;;;;;14.80;2.90;;;;;;;15.27;97.67;100431.71;105670;1275;25366;-64
2022/08/29 02:10:27;;;;;;;15.20;3.00;;;;;;;15.26;97.63;100433.49;105681;1274;23202;-65
2022/08/29 02:12:58;;;;;;;12.80;2.60;;;;;;;15.25;97.77;100429.66;105653;1274;22608;-65
2022/08/29 02:15:30;;;;;;;22.40;3.70;;;;;;;15.25;97.79;100432.78;106021;1273;25946;-66
2022/08/29 02:18:02;;;;;;;22.00;3.10;;;;;;;15.25;97.81;100432.27;105678;1274;24571;-65
2022/08/29 02:20:33;;;;;;;16.80;3.80;;;;;;;15.24;97.86;100432.98;105686;1274;22769;-64
2022/08/29 02:23:05;;;;;;;15.10;4.70;;;;;;;15.23;97.86;100437.83;105670;1274;25326;-64
2022/08/29 02:25:46;;;;;;;15.20;4.30;;;;;;;15.23;97.97;100437.12;105764;1274;25536;-64
2022/08/29 02:28:20;;;;;;;14.10;3.00;;;;;;;15.23;98.13;100436.91;105616;1274;25493;-64
2022/08/29 02:30:53;;;;;;;15.10;2.70;;;;;;;15.22;98.00;100435.63;105608;1274;22549;-64
2022/08/29 02:33:25;;;;;;;14.70;3.30;;;;;;;15.21;98.06;100432.30;105545;1274;25296;-64
2022/08/29 02:35:57;;;;;;;18.30;3.00;;;;;;;15.20;98.11;100430.92;105654;1274;24368;-63
2022/08/29 02:38:31;;;;;;;10.50;3.20;;;;;;;15.19;98.09;100432.77;105623;1274;22596;-64
2022/08/29 02:41:02;;;;;;;12.10;3.20;;;;;;;15.18;98.15;100435.89;105640;1274;22569;-65
2022/08/29 02:43:34;;;;;;;14.00;3.40;;;;;;;15.19;98.17;100438.64;105762;1274;25497;-64
2022/08/29 02:46:05;;;;;;;17.70;3.60;;;;;;;15.18;98.20;100444.30;105668;1274;26344;-64
2022/08/29 02:48:39;;;;;;;11.40;2.90;;;;;;;15.18;98.29;100446.01;105621;1274;24516;-64
2022/08/29 02:51:11;;;;;;;15.90;3.20;;;;;;;15.18;98.53;100451.16;105614;1275;22579;-65
2022/08/29 02:53:42;;;;;;;16.70;3.60;;;;;;;15.18;98.50;100452.14;105562;1275;22618;-64
2022/08/29 02:56:14;;;;;;;16.00;3.80;;;;;;;15.18;98.59;100455.15;105670;1275;24365;-64
2022/08/29 02:58:48;;;;;;;22.00;3.80;;;;;;;15.19;98.63;100458.58;106212;1274;22621;-64
2022/08/29 03:01:21;;;;;;;14.20;2.90;;;;;;;15.19;98.64;100459.41;105727;1273;22556;-64
2022/08/29 03:03:53;;;;;;;17.80;4.30;;;;;;;15.20;98.59;100453.38;105773;1274;24437;-64
2022/08/29 03:06:25;;;;;;;21.60;4.50;;;;;;;15.20;98.67;100454.45;105664;1274;22562;-64
2022/08/29 03:08:57;;;;;;;15.10;3.10;;;;;;;15.21;98.65;100458.02;105624;1274;22681;-64
2022/08/29 03:11:28;;;;;;;13.60;3.50;;;;;;;15.21;98.60;100455.11;105595;1275;23186;-64
2022/08/29 03:14:01;;;;;;;12.70;3.00;;;;;;;15.22;98.52;100453.78;105653;1274;22570;-64
2022/08/29 03:16:35;;;;;;;21.70;4.30;;;;;;;15.21;98.56;100457.00;105758;1275;25437;-63
2022/08/29 03:19:06;;;;;;;14.60;3.20;;;;;;;15.21;98.41;100458.38;105687;1275;24030;-64
2022/08/29 03:21:38;;;;;;;19.30;3.60;;;;;;;15.21;98.56;100456.73;105638;1274;24276;-64
2022/08/29 03:24:09;;;;;;;14.40;3.30;;;;;;;15.19;98.52;100456.54;105598;1275;26535;-64
2022/08/29 03:26:42;;;;;;;16.20;4.10;;;;;;;15.19;98.44;100460.27;105636;1274;24341;-65
2022/08/29 03:29:13;;;;;;;15.60;3.50;;;;;;;15.18;98.56;100458.77;105699;1274;25302;-64
2022/08/29 03:31:45;;;;;;;16.70;4.10;;;;;;;15.18;98.53;100462.16;105772;1274;22563;-63
2022/08/29 03:34:17;;;;;;;12.30;3.20;;;;;;;15.18;98.64;100465.48;106196;1274;24461;-66
2022/08/29 03:36:49;;;;;;;17.60;3.60;;;;;;;15.19;98.66;100470.39;105751;1274;24245;-64
2022/08/29 03:39:20;;;;;;;11.10;3.10;;;;;;;15.18;98.75;100472.69;105605;1274;24442;-65
2022/08/29 03:41:53;;;;;;;15.40;3.30;;;;;;;15.18;98.83;100470.08;105620;1274;22554;-64
2022/08/29 03:44:26;;;;;;;13.60;3.80;;;;;;;15.18;98.72;100469.89;105598;1274;22666;-64
2022/08/29 03:46:57;;;;;;;14.40;3.50;;;;;;;15.17;98.56;100471.31;105746;1274;24318;-64
2022/08/29 03:49:32;;;;;;;16.10;3.70;;;;;;;15.15;98.50;100474.27;105851;1274;22707;-64
2022/08/29 03:52:05;;;;;;;15.70;3.80;;;;;;;15.11;98.46;100472.41;105683;1275;22561;-64
2022/08/29 03:54:37;;;;;;;11.70;4.00;;;;;;;15.10;98.46;100474.95;105593;1274;22637;-64
2022/08/29 03:57:09;;;;;;;16.70;3.50;;;;;;;15.07;98.52;100475.41;105729;1274;22556;-64
2022/08/29 03:59:41;;;;;;;19.60;4.70;;;;;;;15.07;98.39;100477.39;105617;1274;22560;-64
2022/08/29 04:02:13;;;;;;;15.70;3.80;;;;;;;15.05;98.48;100481.17;105662;1274;22533;-64
2022/08/29 04:07:40;;;;;;;15.10;3.80;;;;;;;15.01;98.26;100476.45;105561;1274;25538;-64
2022/08/29 04:10:15;;;;;;;15.40;3.80;;;;;;;14.96;98.27;100474.13;105615;1274;22626;-65
2022/08/29 04:12:47;;;;;;;14.30;3.40;;;;;;;14.91;98.34;100474.30;105527;1274;22613;-64
2022/08/29 04:15:19;;;;;;;13.40;3.90;;;;;;;14.86;98.38;100475.91;105757;1274;22534;-65
2022/08/29 04:17:53;;;;;;;18.50;4.00;;;;;;;14.83;98.58;100479.32;105727;1274;25497;-66
2022/08/29 04:20:26;;;;;;;14.90;4.20;;;;;;;14.80;98.64;100477.06;105640;1274;22542;-65
2022/08/29 04:22:59;;;;;;;13.50;3.90;;;;;;;14.78;98.64;100483.84;105730;1274;25465;-65
2022/08/29 04:25:35;;;;;;;17.50;4.90;;;;;;;14.76;98.66;100489.66;105878;1274;22575;-65
2022/08/29 04:28:09;;;;;;;16.20;4.60;;;;;;;14.75;98.80;100491.60;105581;1274;24288;-64
2022/08/29 04:30:45;;;;;;;15.40;4.40;;;;;;;14.74;99.00;100492.86;105695;1274;22651;-66
2022/08/29 04:33:17;;;;;;;16.40;4.90;;;;;;;14.73;98.93;100496.48;105672;1274;22594;-64
2022/08/29 04:35:49;;;;;;;19.80;4.80;;;;;;;14.73;98.96;100489.34;105699;1274;24425;-65
2022/08/29 04:38:20;;;;;;;14.00;4.60;;;;;;;14.74;99.02;100490.91;105536;1274;22863;-65
2022/08/29 04:40:52;;;;;;;19.20;4.70;;;;;;;14.74;99.17;100495.37;105657;1275;22628;-65
2022/08/29 04:43:24;;;;;;;13.60;4.50;;;;;;;14.74;99.28;100497.46;105760;1274;22540;-64
2022/08/29 04:45:58;;;;;;;13.40;4.90;;;;;;;14.74;99.49;100502.51;105688;1274;22632;-65
2022/08/29 04:48:29;;;;;;;15.50;4.00;;;;;;;14.74;99.46;100504.98;105605;1274;24732;-64
2022/08/29 04:51:02;;;;;;;19.90;4.70;;;;;;;14.75;99.60;100506.83;105603;1274;22782;-64
2022/08/29 04:53:34;;;;;;;25.70;5.30;;;;;;;14.77;99.58;100505.25;105523;1274;25381;-65
2022/08/29 04:56:09;;;;;;;22.90;5.80;;;;;;;14.78;99.80;100508.38;105606;1274;22575;-64
2022/08/29 04:58:46;;;;;;;20.20;5.10;;;;;;;14.80;99.67;100513.23;105592;1274;22632;-64
2022/08/29 05:01:24;;;;;;;18.40;5.40;;;;;;;14.83;99.84;100518.11;105573;1274;22551;-64
2022/08/29 05:03:56;;;;;;;18.20;4.90;;;;;;;14.85;99.89;100515.77;105477;1274;26505;-65
2022/08/29 05:06:28;;;;;;;16.70;4.10;;;;;;;14.88;99.78;100521.20;106006;1274;22571;-65
2022/08/29 05:09:00;;;;;;;14.70;4.10;;;;;;;14.92;99.89;100526.84;105495;1275;22537;-65
2022/08/29 05:11:33;;;;;;;18.70;5.00;;;;;;;14.95;99.77;100528.31;105644;1274;22565;-65
2022/08/29 05:14:04;;;;;;;15.80;4.80;;;;;;;14.98;99.59;100528.18;105573;1274;25321;-64
2022/08/29 05:16:37;;;;;;;16.40;4.00;;;;;;;15.03;99.69;100528.55;105628;1274;22548;-64
2022/08/29 05:19:10;;;;;;;19.90;3.90;;;;;;;15.07;99.60;100530.41;105656;1274;22541;-64
2022/08/29 05:21:43;;;;;;;17.00;3.80;;;;;;;15.10;99.35;100531.55;105596;1275;22546;-64
2022/08/29 05:24:14;;;;;;;19.40;4.10;;;;;;;15.13;99.25;100534.54;105590;1275;22551;-67
2022/08/29 05:26:47;;;;;;;21.00;4.30;;;;;;;15.17;99.13;100533.89;105646;1274;25440;-64
2022/08/29 05:29:19;;;;;;;14.90;3.80;;;;;;;15.21;99.19;100535.39;105688;1274;25512;-64
2022/08/29 05:31:51;;;;;;;16.60;3.60;;;;;;;15.25;99.17;100537.36;105749;1274;22557;-65
2022/08/29 05:34:22;;;;;;;16.90;3.90;;;;;;;15.28;98.76;100539.67;105725;1274;22561;-64
2022/08/29 05:36:53;;;;;;;13.60;4.00;;;;;;;15.30;99.00;100543.27;105702;1274;22547;-64
2022/08/29 05:39:27;;;;;;;17.20;3.50;;;;;;;15.34;98.74;100546.35;105688;1274;22550;-65
2022/08/29 05:42:00;;;;;;;13.40;3.50;;;;;;;15.36;98.81;100549.01;105595;1274;22537;-65
2022/08/29 05:44:33;;;;;;;19.50;5.60;;;;;;;15.39;98.69;100553.58;105822;1274;23040;-66
2022/08/29 05:47:07;;;;;;;12.30;3.40;;;;;;;15.42;98.43;100550.13;105714;1274;24007;-64
2022/08/29 05:49:40;;;;;;;13.30;3.00;;;;;;;15.47;98.43;100547.81;105768;1275;22550;-65
2022/08/29 05:52:13;;;;;;;15.00;3.20;;;;;;;15.53;98.38;100545.74;105696;1273;22557;-66
2022/08/29 05:54:46;;;;;;;16.40;3.60;;;;;;;15.58;98.03;100549.95;105804;1274;22803;-64
2022/08/29 05:57:20;;;;;;;17.50;3.50;;;;;;;15.62;97.40;100548.84;105774;1274;24246;-64
2022/08/29 05:59:53;;;;;;;13.40;3.10;;;;;;;15.65;97.04;100550.91;105820;1274;24802;-64
2022/08/29 06:02:25;;;;;;;14.30;2.30;;;;;;;15.67;96.81;100550.76;105677;1274;22522;-65
2022/08/29 06:04:58;;;;;;;13.80;2.80;;;;;;;15.70;97.22;100552.86;105759;1274;22857;-64
2022/08/29 06:07:31;;;;;;;16.80;2.10;;;;;;;15.75;97.00;100550.67;105796;1274;22541;-64
2022/08/29 06:10:05;;;;;;;13.60;2.70;;;;;;;15.81;97.22;100554.63;105624;1274;22578;-65
2022/08/29 06:12:38;;;;;;;12.00;2.50;;;;;;;15.87;96.94;100556.04;105593;1274;22701;-64
2022/08/29 06:15:11;;;;;;;14.30;1.90;;;;;;;15.92;95.95;100556.91;105727;1274;23234;-64
2022/08/29 06:17:43;;;;;;;15.50;2.10;;;;;;;15.96;94.77;100562.80;105667;1274;22642;-66
2022/08/29 06:20:15;;;;;;;10.30;2.60;;;;;;;15.98;94.32;100561.98;105555;1274;22576;-64
2022/08/29 06:22:48;;;;;;;15.90;3.00;;;;;;;16.03;95.07;100569.74;105674;1274;25639;-65
2022/08/29 06:25:21;;;;;;;11.90;2.40;;;;;;;16.09;94.63;100573.17;105688;1274;22611;-65
2022/08/29 06:27:57;;;;;;;9.00;1.70;;;;;;;16.14;94.46;100576.67;105886;1273;22617;-65
2022/08/29 06:30:30;;;;;;;12.30;3.20;;;;;;;16.19;94.28;100580.33;105689;1274;22560;-64
2022/08/29 06:33:02;;;;;;;11.70;2.30;;;;;;;16.25;93.91;100582.99;105698;1274;22556;-65
2022/08/29 06:35:33;;;;;;;9.30;1.80;;;;;;;16.30;93.34;100590.94;105822;1274;24242;-65
2022/08/29 06:38:06;;;;;;;12.70;1.80;;;;;;;16.35;92.94;100592.16;105802;1274;22574;-65
2022/08/29 06:40:39;;;;;;;11.30;1.70;;;;;;;16.40;93.04;100595.45;105661;1274;22565;-65
2022/08/29 06:43:10;;;;;;;16.10;2.00;;;;;;;16.46;92.60;100598.23;105790;1274;22708;-65
2022/08/29 06:45:44;;;;;;;14.50;2.20;;;;;;;16.53;93.05;100601.02;105723;1274;22541;-67
2022/08/29 06:48:17;;;;;;;14.60;2.00;;;;;;;16.62;92.52;100606.67;105714;1274;25379;-64
2022/08/29 06:50:49;;;;;;;15.50;1.70;;;;;;;16.67;91.20;100613.29;105797;1273;22654;-66
2022/08/29 06:53:22;;;;;;;9.90;1.50;;;;;;;16.72;90.76;100615.74;105644;1274;22544;-65
2022/08/29 06:55:55;;;;;;;12.00;1.70;;;;;;;16.77;90.41;100612.56;105703;1274;22534;-65
2022/08/29 06:58:27;;;;;;;16.00;2.20;;;;;;;16.83;90.43;100617.59;105895;1274;23803;-65
2022/08/29 07:00:59;;;;;;;12.30;1.30;;;;;;;16.90;89.63;100621.63;105774;1274;25753;-65
2022/08/29 07:03:31;;;;;;;6.80;1.30;;;;;;;16.93;88.44;100627.17;105705;1273;22862;-66
2022/08/29 07:06:03;;;;;;;12.30;1.80;;;;;;;16.97;89.08;100622.86;105639;1273;22673;-65
2022/08/29 07:08:35;;;;;;;12.30;1.70;;;;;;;17.03;88.24;100624.54;105689;1274;22544;-65
2022/08/29 07:11:07;;;;;;;19.80;2.90;;;;;;;17.07;88.33;100629.77;105765;1275;22565;-65
2022/08/29 07:13:39;;;;;;;9.60;1.80;;;;;;;17.14;87.85;100627.88;105652;1274;22717;-65
2022/08/29 07:16:15;;;;;;;10.20;1.40;;;;;;;17.19;87.67;100627.65;105934;1273;24945;-65
2022/08/29 07:18:48;;;;;;;11.00;1.30;;;;;;;17.26;87.18;100630.05;105638;1274;22645;-65
2022/08/29 07:21:22;;;;;;;14.90;1.70;;;;;;;17.34;86.50;100625.98;105666;1275;22533;-65
2022/08/29 07:23:57;;;;;;;17.20;1.80;;;;;;;17.39;84.85;100626.37;105690;1274;25260;-64
2022/08/29 07:26:31;;;;;;;8.50;1.60;;;;;;;17.43;84.28;100629.14;105658;1274;22616;-64
2022/08/29 07:29:08;;;;;;;8.80;1.60;;;;;;;17.48;83.95;100631.96;105663;1274;22584;-65
2022/08/29 07:31:42;;;;;;;13.10;1.90;;;;;;;17.53;83.62;100633.61;105682;1275;22653;-65
2022/08/29 07:34:14;;;;;;;8.90;1.40;;;;;;;17.56;84.17;100632.83;105657;1273;22558;-65
2022/08/29 07:36:46;;;;;;;6.80;1.40;;;;;;;17.57;82.89;100638.71;105944;1274;25145;-65
2022/08/29 07:39:21;;;;;;;10.50;1.60;;;;;;;17.60;82.81;100639.22;105696;1274;25379;-65
2022/08/29 07:41:54;;;;;;;12.10;1.30;;;;;;;17.67;83.38;100639.87;105691;1275;25293;-64
2022/08/29 07:44:31;;;;;;;14.10;2.10;;;;;;;17.76;83.09;100633.98;105626;1274;24275;-65
2022/08/29 07:47:04;;;;;;;14.40;1.60;;;;;;;17.83;81.41;100636.33;105741;1274;25221;-65
2022/08/29 07:49:40;;;;;;;7.90;1.20;;;;;;;17.88;79.98;100641.42;105758;1274;25660;-65
2022/08/29 07:52:14;;;;;;;8.40;1.20;;;;;;;17.93;79.96;100638.90;105744;1273;22537;-65
2022/08/29 07:54:47;;;;;;;12.30;1.60;;;;;;;17.97;79.80;100634.35;105798;1274;22535;-64
2022/08/29 07:57:20;;;;;;;8.90;1.50;;;;;;;18.04;80.06;100636.69;105659;1274;24261;-64
2022/08/29 07:59:53;;;;;;;11.40;1.60;;;;;;;18.09;78.66;100638.20;105613;1274;22696;-67
2022/08/29 08:02:25;;;;;;;10.40;1.20;;;;;;;18.12;78.06;100639.05;105648;1274;24255;-65
2022/08/29 08:05:02;;;;;;;10.70;1.20;;;;;;;18.17;77.80;100636.61;105791;1274;23201;-65
2022/08/29 08:07:36;;;;;;;8.80;1.40;;;;;;;18.19;76.88;100640.80;106078;1273;26362;-66
2022/08/29 08:10:11;;;;;;;9.40;1.90;;;;;;;18.16;77.09;100645.66;105676;1274;25517;-66
2022/08/29 08:12:43;;;;;;;11.20;1.70;;;;;;;18.18;76.74;100647.18;105678;1274;24451;-65
2022/08/29 08:15:17;;;;;;;11.20;1.90;;;;;;;18.22;76.20;100648.82;105644;1274;22537;-65
2022/08/29 08:17:49;;;;;;;7.90;1.30;;;;;;;18.22;75.68;100647.43;105695;1274;23122;-67
2022/08/29 08:20:22;;;;;;;11.20;1.70;;;;;;;18.22;76.26;100647.84;105641;1273;22597;-65
2022/08/29 08:22:55;;;;;;;9.60;1.80;;;;;;;18.24;76.29;100647.41;105591;1274;25497;-66
2022/08/29 08:25:30;;;;;;;15.20;1.90;;;;;;;18.29;76.68;100648.30;105552;1274;22581;-66
2022/08/29 08:28:04;;;;;;;11.30;1.90;;;;;;;18.32;76.91;100648.04;105759;1274;25272;-65
2022/08/29 08:30:37;;;;;;;10.70;2.00;;;;;;;18.36;76.29;100649.59;105680;1274;22569;-65
2022/08/29 08:33:10;;;;;;;8.20;1.70;;;;;;;18.43;76.39;100654.55;105632;1274;22713;-66
2022/08/29 08:35:42;;;;;;;9.10;1.60;;;;;;;18.50;76.16;100653.75;105936;1273;22613;-66
2022/08/29 08:38:15;;;;;;;10.20;1.70;;;;;;;18.57;76.16;100654.98;105748;1274;22664;-66
2022/08/29 08:40:55;;;;;;;10.30;1.70;;;;;;;18.63;74.98;100660.77;105743;1274;22810;-65
2022/08/29 08:43:32;;;;;;;;;;;;;;;18.65;74.34;100665.27;105899;1274;24046;-65
2022/08/29 08:46:06;;;;;;;9.70;1.40;;;;;;;18.66;74.21;100660.64;106091;1274;24391;-66
2022/08/29 08:48:40;;;;;;;8.10;1.40;;;;;;;18.67;73.93;100656.27;105571;1274;24447;-67
2022/08/29 08:51:22;;;;;;;12.70;1.60;;;;;;;18.67;72.40;100662.69;105693;1274;22532;-66
2022/08/29 08:53:58;;;;;;;13.30;2.30;;;;;;;18.70;73.75;100660.20;105559;1274;24430;-66
2022/08/29 08:56:39;;;;;;;10.30;1.40;;;;;;;18.76;73.29;100653.41;105772;1274;22560;-69
2022/08/29 08:59:17;;;;;;;13.20;1.40;;;;;;;18.81;73.16;100651.63;107482;1273;22658;-68
2022/08/29 09:02:00;;;;;;;11.80;1.50;;;;;;;18.89;73.36;100658.88;106178;1274;25722;-69
2022/08/29 09:04:53;;;;;;;8.80;1.60;;;;;;;18.94;71.37;100661.13;106404;1274;22629;-69
2022/08/29 09:07:45;;;;;;;13.30;1.50;;;;;;;18.93;70.87;100658.94;106192;1274;22558;-68
2022/08/29 09:10:31;;;;;;;12.30;1.60;;;;;;;18.90;70.74;100654.32;106139;1274;22570;-69
2022/08/29 09:13:11;;;;;;;8.40;1.60;;;;;;;18.91;71.43;100655.19;106281;1273;22769;-68
2022/08/29 09:15:46;;;;;;;12.20;1.80;;;;;;;18.95;71.20;100656.60;106257;1274;22538;-69
2022/08/29 09:18:28;;;;;;;11.50;1.60;;;;;;;19.00;71.17;100657.59;106227;1273;22708;-68
2022/08/29 09:21:01;;;;;;;9.40;1.40;;;;;;;19.07;71.54;100656.96;106151;1273;22550;-68
2022/08/29 09:23:43;;;;;;;11.10;1.80;;;;;;;19.14;70.98;100657.79;106097;1273;22559;-68
2022/08/29 09:26:18;;;;;;;12.10;1.60;;;;;;;19.19;70.91;100657.67;106135;1274;22560;-70
2022/08/29 09:28:50;;;;;;;11.00;1.70;;;;;;;19.22;68.96;100655.02;106208;1274;25480;-68
2022/08/29 09:31:26;;;;;;;11.40;2.00;;;;;;;19.25;68.58;100652.58;106197;1273;22550;-69
2022/08/29 09:34:00;;;;;;;12.90;2.20;;;;;;;19.31;68.68;100659.77;106255;1274;22557;-69
2022/08/29 09:36:45;;;;;;;7.90;1.50;;;;;;;19.34;68.09;100657.48;106314;1274;24283;-69
2022/08/29 09:39:22;;;;;;;12.70;1.60;;;;;;;19.37;67.45;100663.96;106421;1274;23480;-69
2022/08/29 09:41:56;;;;;;;9.30;1.40;;;;;;;19.40;67.34;100660.70;106359;1274;27149;-70
2022/08/29 09:44:31;;;;;;;7.30;1.20;;;;;;;19.41;64.75;100661.85;106268;1273;22554;-68
2022/08/29 09:47:13;;;;;;;7.70;1.40;;;;;;;19.42;65.85;100658.75;106266;1274;25338;-69
2022/08/29 09:50:06;;;;;;;8.60;1.60;;;;;;;19.45;65.51;100663.42;106392;1274;22560;-69
2022/08/29 09:52:55;;;;;;;10.60;1.50;;;;;;;19.52;66.58;100662.27;106334;1274;24298;-69
2022/08/29 09:55:41;;;;;;;11.10;1.60;;;;;;;19.55;65.26;100660.95;106327;1274;24703;-69
2022/08/29 09:58:34;;;;;;;6.80;1.40;;;;;;;19.54;64.67;100654.67;106316;1273;22756;-69
2022/08/29 10:01:10;;;;;;;12.40;1.30;;;;;;;19.56;64.76;100655.63;102262;1274;5531058;-69
2022/08/29 10:03:52;;;;;;;9.80;1.70;;;;;;;19.60;64.62;100659.25;106617;1273;22553;-69
2022/08/29 10:06:28;;;;;;;10.20;1.40;;;;;;;19.64;64.52;100651.82;106677;1273;22710;-68
2022/08/29 10:09:08;;;;;;;10.90;1.90;;;;;;;19.69;63.88;100654.08;106182;1274;22762;-70
2022/08/29 10:11:44;;;;;;;;;;;;;;;19.73;64.11;100652.60;106755;1274;22560;-69
2022/08/29 10:14:44;;;;;;;8.70;1.40;;;;;;;19.74;63.94;100657.90;106319;1274;24319;-69
2022/08/29 10:20:52;;;;;;;8.10;1.50;;;;;;;19.73;62.93;100664.80;105987;1275;25375;-69
2022/08/29 10:23:32;;;;;;;9.30;1.10;;;;;;;19.73;63.54;100661.72;105939;1274;22867;-68
2022/08/29 10:26:12;;;;;;;8.10;1.10;;;;;;;19.73;62.49;100666.92;106115;1274;25442;-69
2022/08/29 10:28:50;;;;;;;6.10;1.10;;;;;;;19.70;62.39;100665.25;106527;1274;22592;-68
2022/08/29 10:31:33;;;;;;;10.70;1.50;;;;;;;19.67;62.61;100668.95;106615;1273;22991;-68
2022/08/29 10:34:23;;;;;;;10.00;1.20;;;;;;;19.64;62.85;100657.45;106554;1274;25955;-69
2022/08/29 10:36:58;;;;;;;;;;;;;;;19.63;62.00;100657.91;106126;1274;22564;-68
2022/08/29 10:39:42;;;;;;;4.30;1.00;;;;;;;19.66;62.65;100660.36;105721;1274;24313;-68
2022/08/29 10:42:18;;;;;;;11.20;1.50;;;;;;;19.73;62.15;100656.92;106371;1274;22569;-68
2022/08/29 10:45:08;;;;;;;7.20;1.10;;;;;;;19.71;62.17;100655.09;106253;1274;24450;-68
2022/08/29 10:47:46;;;;;;;10.10;1.30;;;;;;;19.75;62.16;100654.54;105768;1274;22540;-68
2022/08/29 10:50:44;;;;;;;9.30;1.20;;;;;;;19.79;62.26;100649.79;106154;1274;24247;-68
2022/08/29 10:53:20;;;;;;;14.00;1.40;;;;;;;19.88;62.09;100650.62;105836;1274;23995;-69
2022/08/29 10:55:57;;;;;;;9.70;1.10;;;;;;;19.96;61.45;100655.66;106429;1273;22618;-69
2022/08/29 10:58:47;;;;;;;5.70;1.00;;;;;;;19.98;61.32;100651.83;106281;1274;25615;-66
2022/08/29 11:01:26;;;;;;;9.10;1.50;;;;;;;20.02;61.75;100651.72;105784;1274;24783;-69
2022/08/29 11:04:16;;;;;;;11.00;1.40;;;;;;;20.07;61.55;100653.94;106005;1275;24023;-69
2022/08/29 11:06:48;;;;;;;;;;;;;;;20.11;61.70;100646.54;105974;1274;22606;-68
2022/08/29 11:09:25;;;;;;;6.90;0.90;;;;;;;20.20;61.65;100646.77;106265;1274;25453;-68
2022/08/29 11:12:10;;;;;;;11.90;1.20;;;;;;;20.24;61.01;100644.64;106572;1273;23425;-68
2022/08/29 11:14:46;;;;;;;7.60;1.40;;;;;;;20.27;61.27;100646.73;106269;1274;25401;-69
2022/08/29 11:17:25;;;;;;;12.10;1.40;;;;;;;20.25;60.26;100642.69;106012;1274;24126;-68
2022/08/29 11:20:03;;;;;;;8.20;1.10;;;;;;;20.26;60.43;100646.12;106204;1275;25379;-68
2022/08/29 11:22:42;;;;;;;12.80;1.40;;;;;;;20.27;60.26;100647.14;106278;1273;24184;-68
2022/08/29 11:25:16;;;;;;;9.20;1.30;;;;;;;20.27;60.66;100640.34;105922;1274;22569;-69
2022/08/29 11:27:56;;;;;;;7.30;1.00;;;;;;;20.29;60.25;100642.20;105883;1274;25259;-68
2022/08/29 11:30:37;;;;;;;8.00;1.20;;;;;;;20.34;59.30;100638.88;105798;1273;24526;-68
2022/08/29 11:33:21;;;;;;;7.90;1.00;;;;;;;20.36;59.34;100640.71;105786;1274;22564;-69
2022/08/29 11:36:12;;;;;;;10.40;0.90;;;;;;;20.33;58.80;100643.23;105820;1274;22560;-68
2022/08/29 11:39:04;;;;;;;5.10;0.90;;;;;;;20.33;59.05;100648.25;105832;1273;25447;-68
2022/08/29 11:41:38;;;;;;;10.00;1.00;;;;;;;20.30;58.94;100651.27;106266;1274;22576;-68
2022/08/29 11:44:23;;;;;;;10.70;1.20;;;;;;;20.30;59.34;100647.20;105802;1274;22505;-68
2022/08/29 11:46:56;;;;;;;9.00;1.20;;;;;;;20.34;59.37;100643.63;105834;1274;22534;-68
2022/08/29 11:49:49;;;;;;;4.40;0.70;;;;;;;20.40;59.59;100642.31;105863;1274;24308;-69
2022/08/29 11:52:30;;;;;;;7.40;0.80;;;;;;;20.49;59.44;100646.60;105769;1274;22604;-68
2022/08/29 11:55:29;;;;;;;10.30;1.20;;;;;;;20.53;59.43;100643.23;105809;1273;22694;-68
2022/08/29 11:58:08;;;;;;;9.90;1.30;;;;;;;20.58;59.19;100639.05;105909;1274;22564;-68